Time;durP1;ratioP1;P1;durP2;ratioP2;P2;SDS_P1;SDS_P2;PMS_P1;PMS_P2;Temp;Humidity;BMP_temperature;BMP_pressure;BME280_temperature;BME280_humidity;BME280_pressure;Samples;Min_cycle;Max_cycle;Signal;HPM_P1;HPM_P2
2022/08/07 00:01:24;;;;;;;2.30;1.17;;;19.10;47.50;;;;;;7382181;19;20424;-46
2022/08/07 00:03:53;;;;;;;2.07;1.10;;;19.10;47.80;;;;;;7382729;19;20420;-46
2022/08/07 00:06:26;;;;;;;2.43;1.40;;;19.00;48.00;;;;;;7380519;19;20377;-46
2022/08/07 00:08:55;;;;;;;1.87;1.60;;;19.00;48.20;;;;;;7384246;19;20831;-46
2022/08/07 00:11:24;;;;;;;2.00;1.20;;;19.10;47.90;;;;;;7382823;19;20364;-46
2022/08/07 00:13:54;;;;;;;3.87;1.60;;;19.20;47.30;;;;;;7384101;19;20372;-46
2022/08/07 00:16:23;;;;;;;4.07;1.23;;;19.10;47.90;;;;;;7389380;19;20982;-46
2022/08/07 00:18:53;;;;;;;1.80;1.57;;;18.90;48.20;;;;;;7390938;19;20400;-46
2022/08/07 00:21:25;;;;;;;5.33;1.40;;;18.80;48.30;;;;;;7389478;19;20372;-46
2022/08/07 00:23:54;;;;;;;1.53;1.43;;;18.80;48.20;;;;;;7390630;19;20472;-46
2022/08/07 00:26:24;;;;;;;1.60;1.33;;;18.90;48.20;;;;;;7388921;19;20929;-46
2022/08/07 00:28:53;;;;;;;1.70;1.13;;;18.80;48.30;;;;;;7390650;19;20380;-46
2022/08/07 00:31:24;;;;;;;1.27;1.10;;;18.90;48.20;;;;;;7388746;19;20375;-46
2022/08/07 00:33:54;;;;;;;2.00;1.30;;;18.60;48.50;;;;;;7390183;19;20913;-46
2022/08/07 00:36:28;;;;;;;1.27;1.03;;;18.50;48.70;;;;;;7388035;19;20933;-46
2022/08/07 00:39:00;;;;;;;1.57;1.47;;;18.40;49.00;;;;;;7389823;19;20380;-46
2022/08/07 00:41:34;;;;;;;2.53;1.60;;;18.60;48.90;;;;;;7388873;19;20922;-46
2022/08/07 00:44:03;;;;;;;1.33;1.23;;;18.50;48.80;;;;;;7389898;19;20380;-46
2022/08/07 00:46:33;;;;;;;4.00;1.40;;;18.40;48.80;;;;;;7389057;19;20388;-46
2022/08/07 00:49:03;;;;;;;1.67;1.20;;;18.50;49.00;;;;;;7389667;19;20944;-46
2022/08/07 00:51:35;;;;;;;2.03;1.00;;;18.40;49.00;;;;;;7388866;19;20383;-46
2022/08/07 00:54:06;;;;;;;1.10;1.00;;;18.40;49.10;;;;;;7387232;19;20384;-46
2022/08/07 00:56:36;;;;;;;1.20;1.10;;;18.40;49.10;;;;;;7387996;19;20423;-46
2022/08/07 00:59:06;;;;;;;1.90;1.30;;;18.50;48.90;;;;;;7387894;19;20393;-46
2022/08/07 01:01:36;;;;;;;1.43;1.33;;;18.50;49.10;;;;;;7384813;19;20424;-46
2022/08/07 01:04:07;;;;;;;2.00;1.50;;;18.30;49.40;;;;;;7386447;19;20388;-46
2022/08/07 01:06:40;;;;;;;1.43;1.10;;;18.10;49.90;;;;;;7385456;19;20746;-46
2022/08/07 01:09:09;;;;;;;1.73;1.17;;;18.20;49.90;;;;;;7387424;19;20390;-46
2022/08/07 01:11:39;;;;;;;1.20;1.07;;;18.40;49.60;;;;;;7387472;19;20407;-46
2022/08/07 01:14:09;;;;;;;3.07;1.30;;;18.30;49.10;;;;;;7387888;19;20681;-46
2022/08/07 01:16:39;;;;;;;1.20;1.10;;;18.20;49.60;;;;;;7387066;19;20376;-46
2022/08/07 01:19:09;;;;;;;0.80;0.80;;;18.30;49.40;;;;;;7387500;19;20582;-46
2022/08/07 01:21:42;;;;;;;2.70;1.40;;;18.30;49.70;;;;;;7389155;19;20410;-46
2022/08/07 01:24:12;;;;;;;2.00;1.23;;;18.30;49.90;;;;;;7386786;19;20437;-46
2022/08/07 01:26:41;;;;;;;1.33;1.23;;;18.10;49.90;;;;;;7384616;19;20388;-46
2022/08/07 01:29:12;;;;;;;1.73;1.07;;;18.00;50.70;;;;;;7384936;19;20369;-46
2022/08/07 01:31:42;;;;;;;1.30;1.10;;;18.00;50.40;;;;;;7387292;19;20376;-46
2022/08/07 01:34:16;;;;;;;1.93;1.07;;;18.20;50.20;;;;;;7385864;19;20731;-46
2022/08/07 01:36:50;;;;;;;3.00;1.27;;;18.10;50.10;;;;;;7385322;19;20383;-46
2022/08/07 01:39:24;;;;;;;1.93;1.10;;;18.10;50.50;;;;;;7386451;19;20477;-46
2022/08/07 01:42:03;;;;;;;2.60;1.50;;;18.00;50.40;;;;;;7386542;19;20387;-46
2022/08/07 01:44:34;;;;;;;2.77;1.40;;;17.90;51.10;;;;;;7386518;19;20380;-46
2022/08/07 01:47:06;;;;;;;1.10;1.00;;;18.10;50.50;;;;;;7384914;19;20460;-45
2022/08/07 01:49:37;;;;;;;1.30;0.97;;;18.00;50.80;;;;;;7387231;19;20383;-45
2022/08/07 01:52:11;;;;;;;2.60;1.40;;;17.90;51.00;;;;;;7385978;19;20384;-46
2022/08/07 01:54:42;;;;;;;2.20;1.30;;;18.00;51.10;;;;;;7385171;19;20742;-46
2022/08/07 01:57:20;;;;;;;1.53;0.90;;;17.90;51.30;;;;;;7383537;19;20376;-46
2022/08/07 01:59:57;;;;;;;1.23;0.90;;;18.00;51.00;;;;;;7383570;19;20411;-46
2022/08/07 02:02:35;;;;;;;1.17;1.07;;;18.00;51.00;;;;;;7384791;19;20383;-46
2022/08/07 02:05:09;;;;;;;1.63;1.10;;;17.80;51.30;;;;;;7382760;19;20384;-46
2022/08/07 02:07:44;;;;;;;1.00;0.90;;;17.70;51.50;;;;;;7384575;19;20390;-46
2022/08/07 02:10:15;;;;;;;0.90;0.90;;;17.90;51.60;;;;;;7385354;19;20394;-46
2022/08/07 02:12:47;;;;;;;1.90;1.30;;;18.00;51.30;;;;;;7385004;19;20375;-46
2022/08/07 02:15:26;;;;;;;2.10;1.23;;;18.00;51.30;;;;;;7385491;19;20382;-46
2022/08/07 02:17:56;;;;;;;1.40;1.00;;;17.90;51.40;;;;;;7385143;19;20913;-45
2022/08/07 02:20:29;;;;;;;1.47;1.27;;;17.90;51.50;;;;;;7385240;19;20938;-46
2022/08/07 02:23:07;;;;;;;1.83;1.40;;;17.80;51.60;;;;;;7384616;19;20444;-46
2022/08/07 02:25:38;;;;;;;1.30;1.20;;;17.60;51.90;;;;;;7383508;19;20467;-45
2022/08/07 02:28:09;;;;;;;3.23;1.87;;;17.50;52.30;;;;;;7382992;19;20380;-45
2022/08/07 02:30:41;;;;;;;1.40;1.30;;;17.60;52.30;;;;;;7385860;19;20376;-45
2022/08/07 02:33:13;;;;;;;1.77;1.20;;;17.60;52.40;;;;;;7381927;19;20383;-46
2022/08/07 02:35:44;;;;;;;2.03;1.23;;;17.50;52.50;;;;;;7382551;19;20388;-46
2022/08/07 02:38:18;;;;;;;1.27;1.17;;;17.50;52.70;;;;;;7384276;19;20739;-46
2022/08/07 02:40:48;;;;;;;1.40;1.20;;;17.50;52.70;;;;;;7385636;19;20387;-45
2022/08/07 02:43:19;;;;;;;1.50;1.23;;;17.40;53.00;;;;;;7386818;19;20372;-45
2022/08/07 02:45:55;;;;;;;3.77;1.67;;;17.30;53.10;;;;;;7386262;19;20567;-45
2022/08/07 02:48:24;;;;;;;2.50;1.23;;;17.30;53.40;;;;;;7382931;19;20408;-45
2022/08/07 02:50:57;;;;;;;1.60;1.20;;;17.50;53.30;;;;;;7384021;19;20379;-46
2022/08/07 02:53:36;;;;;;;1.10;1.00;;;17.50;53.00;;;;;;7385588;19;20377;-45
2022/08/07 02:56:16;;;;;;;3.27;1.13;;;17.50;53.10;;;;;;7386217;19;20503;-46
2022/08/07 02:58:47;;;;;;;2.90;1.23;;;17.50;53.20;;;;;;7385141;19;20386;-46
2022/08/07 03:01:21;;;;;;;0.83;0.83;;;17.70;53.00;;;;;;7382399;19;20993;-46
2022/08/07 03:03:52;;;;;;;1.53;1.27;;;17.50;53.20;;;;;;7383797;19;21063;-45
2022/08/07 03:06:28;;;;;;;2.27;1.40;;;17.40;53.70;;;;;;7384869;19;20367;-46
2022/08/07 03:09:01;;;;;;;1.97;1.77;;;17.40;53.80;;;;;;7381739;19;20749;-45
2022/08/07 03:11:33;;;;;;;1.90;1.40;;;17.30;54.00;;;;;;7384453;19;20383;-45
2022/08/07 03:14:07;;;;;;;2.03;1.40;;;17.30;54.20;;;;;;7383775;19;20909;-45
2022/08/07 03:16:37;;;;;;;1.20;1.10;;;17.20;54.90;;;;;;7384467;19;20372;-45
2022/08/07 03:19:07;;;;;;;1.43;1.33;;;17.20;54.50;;;;;;7383433;19;20372;-46
2022/08/07 03:21:37;;;;;;;2.00;1.10;;;17.20;54.50;;;;;;7387227;19;20376;-45
2022/08/07 03:24:09;;;;;;;1.53;1.20;;;17.20;54.40;;;;;;7383828;19;20394;-45
2022/08/07 03:26:40;;;;;;;1.10;1.00;;;17.20;54.70;;;;;;7384749;19;20440;-46
2022/08/07 03:29:13;;;;;;;2.70;1.30;;;17.20;54.60;;;;;;7381988;19;20380;-45
2022/08/07 03:31:44;;;;;;;1.90;1.30;;;17.10;54.80;;;;;;7384738;19;20387;-46
2022/08/07 03:34:19;;;;;;;2.03;1.17;;;17.20;55.00;;;;;;7384503;19;20383;-46
2022/08/07 03:36:53;;;;;;;3.17;1.70;;;17.30;54.90;;;;;;7383513;19;20909;-46
2022/08/07 03:39:29;;;;;;;1.20;1.10;;;17.40;54.70;;;;;;7384455;19;20765;-45
2022/08/07 03:41:59;;;;;;;1.47;1.30;;;17.30;54.90;;;;;;7383098;19;20657;-45
2022/08/07 03:44:29;;;;;;;1.50;1.40;;;17.20;55.10;;;;;;7382824;19;20760;-45
2022/08/07 03:46:59;;;;;;;1.50;1.40;;;17.20;55.40;;;;;;7383264;19;20412;-46
2022/08/07 03:49:29;;;;;;;0.93;0.93;;;17.00;56.30;;;;;;7380751;19;20409;-45
2022/08/07 03:52:00;;;;;;;3.70;1.40;;;17.10;55.80;;;;;;7382944;19;20376;-45
2022/08/07 03:54:33;;;;;;;1.50;1.40;;;17.20;55.60;;;;;;7383005;19;20367;-46
2022/08/07 03:57:06;;;;;;;2.27;1.30;;;17.40;55.60;;;;;;7381780;19;20387;-46
2022/08/07 03:59:36;;;;;;;1.83;1.20;;;17.40;55.40;;;;;;7381711;19;20506;-45
2022/08/07 04:02:06;;;;;;;1.60;1.20;;;17.40;55.60;;;;;;7382406;19;20807;-45
2022/08/07 04:04:37;;;;;;;1.60;1.23;;;17.30;55.80;;;;;;7380875;19;20777;-45
2022/08/07 04:07:08;;;;;;;2.07;1.33;;;17.30;56.20;;;;;;7381623;19;20378;-45
2022/08/07 04:09:42;;;;;;;1.87;1.13;;;17.20;56.20;;;;;;7382020;19;20380;-45
2022/08/07 04:12:14;;;;;;;1.97;1.67;;;17.20;57.00;;;;;;7383203;19;20890;-45
2022/08/07 04:14:45;;;;;;;2.07;1.53;;;17.20;56.90;;;;;;7381817;19;20372;-46
2022/08/07 04:17:16;;;;;;;2.53;1.60;;;17.10;57.20;;;;;;7384250;19;20388;-45
2022/08/07 04:19:46;;;;;;;1.50;1.40;;;17.10;57.90;;;;;;7382579;19;20427;-46
2022/08/07 04:22:18;;;;;;;2.60;1.50;;;17.10;57.60;;;;;;7382088;19;20736;-46
2022/08/07 04:24:51;;;;;;;1.50;1.30;;;17.20;57.80;;;;;;7382161;19;20384;-45
2022/08/07 04:27:21;;;;;;;1.50;1.40;;;17.00;58.10;;;;;;7381465;19;20392;-45
2022/08/07 04:29:52;;;;;;;2.03;1.60;;;16.90;58.60;;;;;;7382212;19;20372;-46
2022/08/07 04:32:22;;;;;;;1.80;1.50;;;16.90;59.00;;;;;;7380749;19;20375;-46
2022/08/07 04:34:53;;;;;;;1.80;1.70;;;16.80;59.20;;;;;;7381390;19;20380;-45
2022/08/07 04:37:24;;;;;;;1.67;1.57;;;16.80;59.50;;;;;;7380489;19;20380;-45
2022/08/07 04:39:58;;;;;;;2.17;1.63;;;16.70;59.90;;;;;;7381581;19;20412;-46
2022/08/07 04:42:30;;;;;;;2.13;2.00;;;16.60;60.40;;;;;;7380994;19;20760;-46
2022/08/07 04:45:06;;;;;;;2.00;1.50;;;16.80;60.20;;;;;;7381289;19;20385;-45
2022/08/07 04:47:42;;;;;;;2.17;1.67;;;16.80;60.00;;;;;;7381640;19;20383;-45
2022/08/07 04:50:19;;;;;;;2.27;1.60;;;16.70;60.30;;;;;;7380985;19;20388;-46
2022/08/07 04:53:10;;;;;;;9.50;2.23;;;16.70;60.70;;;;;;7384459;19;20872;-45
2022/08/07 04:55:54;;;;;;;1.53;1.43;;;16.70;60.50;;;;;;7382394;19;20388;-45
2022/08/07 04:58:33;;;;;;;2.43;1.80;;;16.80;60.60;;;;;;7381793;19;20387;-45
2022/08/07 05:01:12;;;;;;;2.20;1.60;;;16.80;60.00;;;;;;7385657;19;20961;-45
2022/08/07 05:03:48;;;;;;;3.60;2.20;;;16.80;59.90;;;;;;7387034;19;20376;-45
2022/08/07 05:06:24;;;;;;;3.13;2.47;;;17.00;59.80;;;;;;7389473;19;20385;-46
2022/08/07 05:09:04;;;;;;;2.40;1.93;;;17.10;59.20;;;;;;7387102;19;20372;-45
2022/08/07 05:11:48;;;;;;;2.40;1.80;;;17.10;59.30;;;;;;7389094;19;20447;-45
2022/08/07 05:14:22;;;;;;;6.27;1.90;;;17.00;59.50;;;;;;7389561;19;20387;-46
2022/08/07 05:16:59;;;;;;;3.90;1.90;;;17.00;59.90;;;;;;7388450;19;20379;-45
2022/08/07 05:19:32;;;;;;;2.87;1.60;;;17.00;59.90;;;;;;7388645;19;20383;-46
2022/08/07 05:22:04;;;;;;;4.23;2.30;;;17.10;60.00;;;;;;7389220;19;20500;-45
2022/08/07 05:24:37;;;;;;;2.30;2.10;;;17.10;60.00;;;;;;7387843;19;20387;-46
2022/08/07 05:27:16;;;;;;;2.57;1.73;;;17.20;60.00;;;;;;7388115;19;20379;-46
2022/08/07 05:29:48;;;;;;;1.67;1.57;;;17.30;59.80;;;;;;7387723;19;20388;-46
2022/08/07 05:32:20;;;;;;;2.10;1.87;;;17.50;59.50;;;;;;7387037;19;20383;-46
2022/08/07 05:34:50;;;;;;;2.10;1.50;;;17.50;59.60;;;;;;7387068;19;20380;-46
2022/08/07 05:37:21;;;;;;;2.30;1.83;;;17.70;59.40;;;;;;7388495;19;20417;-46
2022/08/07 05:39:59;;;;;;;1.80;1.70;;;17.80;59.00;;;;;;7388632;19;20771;-46
2022/08/07 05:42:31;;;;;;;1.60;1.50;;;17.90;59.60;;;;;;7387671;19;20384;-46
2022/08/07 05:45:04;;;;;;;2.63;2.27;;;18.00;58.70;;;;;;7387877;19;20929;-46
2022/08/07 05:47:35;;;;;;;2.57;1.77;;;18.20;58.70;;;;;;7387204;19;20379;-46
2022/08/07 05:50:05;;;;;;;1.97;1.60;;;18.20;58.50;;;;;;7386721;19;20364;-46
2022/08/07 05:52:35;;;;;;;3.60;2.50;;;18.50;58.00;;;;;;7386808;19;20407;-47
2022/08/07 05:55:08;;;;;;;3.13;2.00;;;18.70;57.50;;;;;;7387885;19;20739;-46
2022/08/07 05:57:42;;;;;;;2.40;1.90;;;18.80;57.30;;;;;;7386690;19;20419;-46
2022/08/07 06:00:14;;;;;;;3.10;2.30;;;18.80;57.90;;;;;;7386425;19;20431;-46
2022/08/07 06:02:51;;;;;;;2.27;1.90;;;18.90;57.30;;;;;;7387306;19;20383;-46
2022/08/07 06:05:25;;;;;;;2.10;1.90;;;19.00;57.30;;;;;;7385677;19;20376;-46
2022/08/07 06:07:55;;;;;;;2.30;2.10;;;19.20;57.10;;;;;;7387667;19;20575;-46
2022/08/07 06:10:27;;;;;;;2.10;1.83;;;19.40;56.70;;;;;;7385280;19;20398;-46
2022/08/07 06:12:59;;;;;;;3.73;1.87;;;19.60;56.30;;;;;;7385832;19;20373;-46
2022/08/07 06:15:30;;;;;;;2.30;2.10;;;19.80;56.20;;;;;;7386110;19;20742;-46
2022/08/07 06:18:00;;;;;;;2.30;2.10;;;20.00;56.00;;;;;;7386444;19;20746;-46
2022/08/07 06:20:31;;;;;;;4.27;2.43;;;20.20;55.70;;;;;;7386493;19;20387;-46
2022/08/07 06:23:02;;;;;;;2.40;2.20;;;20.40;55.60;;;;;;7387253;19;20905;-46
2022/08/07 06:25:41;;;;;;;4.00;2.37;;;20.50;55.40;;;;;;7388567;19;20451;-46
2022/08/07 06:28:14;;;;;;;4.53;2.47;;;20.60;55.40;;;;;;7385281;19;20412;-46
2022/08/07 06:30:43;;;;;;;2.87;2.20;;;20.80;55.40;;;;;;7385926;19;20372;-46
2022/08/07 06:33:17;;;;;;;3.53;2.53;;;21.00;55.40;;;;;;7385147;19;20882;-46
2022/08/07 06:35:50;;;;;;;2.93;2.43;;;21.00;55.20;;;;;;7386844;19;20917;-46
2022/08/07 06:38:20;;;;;;;2.77;2.40;;;21.20;55.40;;;;;;7385626;19;21149;-47
2022/08/07 06:40:54;;;;;;;3.27;2.63;;;21.40;55.20;;;;;;7385641;19;20372;-46
2022/08/07 06:43:33;;;;;;;3.27;2.97;;;21.60;55.20;;;;;;7384910;19;20380;-46
2022/08/07 06:46:16;;;;;;;3.53;3.03;;;21.90;55.10;;;;;;7384753;19;20376;-47
2022/08/07 06:48:46;;;;;;;3.30;2.80;;;21.90;55.30;;;;;;7385209;19;20993;-46
2022/08/07 06:51:26;;;;;;;2.80;2.60;;;22.00;55.40;;;;;;7384351;19;20374;-46
2022/08/07 06:54:01;;;;;;;3.17;2.87;;;22.20;55.20;;;;;;7386007;19;20372;-46
2022/08/07 06:56:42;;;;;;;4.03;2.47;;;22.40;55.10;;;;;;7385647;19;20391;-46
2022/08/07 06:59:31;;;;;;;2.80;2.60;;;22.60;55.00;;;;;;7384744;19;21060;-47
2022/08/07 07:02:05;;;;;;;3.30;2.47;;;22.70;54.80;;;;;;7383902;19;20376;-47
2022/08/07 07:04:35;;;;;;;3.17;2.87;;;22.70;54.50;;;;;;7383911;19;21024;-46
2022/08/07 07:07:06;;;;;;;4.30;2.87;;;22.90;54.40;;;;;;7384389;19;20397;-47
2022/08/07 07:09:37;;;;;;;4.97;2.67;;;23.00;54.30;;;;;;7384291;19;20945;-47
2022/08/07 07:12:21;;;;;;;3.17;2.87;;;23.20;54.00;;;;;;7384210;19;20396;-47
2022/08/07 07:15:01;;;;;;;4.80;2.77;;;23.30;53.80;;;;;;7386487;19;20944;-47
2022/08/07 07:17:45;;;;;;;3.30;3.00;;;23.30;54.20;;;;;;7386024;19;20372;-47
2022/08/07 07:20:22;;;;;;;3.77;2.90;;;23.40;54.10;;;;;;7383760;19;20375;-47
2022/08/07 07:22:52;;;;;;;5.17;3.00;;;23.60;53.50;;;;;;7384555;19;20376;-46
2022/08/07 07:25:22;;;;;;;2.60;2.40;;;23.70;53.40;;;;;;7385813;19;20889;-47
2022/08/07 07:27:55;;;;;;;3.80;2.60;;;23.80;53.90;;;;;;7386077;19;20409;-47
2022/08/07 07:30:32;;;;;;;5.80;3.23;;;23.90;53.20;;;;;;7383567;19;20391;-47
2022/08/07 07:33:04;;;;;;;4.93;2.87;;;24.00;53.00;;;;;;7384884;19;20724;-47
2022/08/07 07:35:35;;;;;;;7.90;3.93;;;24.10;52.80;;;;;;7385523;19;20924;-47
2022/08/07 07:38:06;;;;;;;2.77;2.40;;;24.30;52.40;;;;;;7386341;19;20380;-46
2022/08/07 07:40:39;;;;;;;4.03;2.47;;;24.50;52.20;;;;;;7384694;19;20368;-47
2022/08/07 07:43:12;;;;;;;2.50;2.30;;;24.60;51.10;;;;;;7384259;19;20402;-47
2022/08/07 07:45:49;;;;;;;3.17;2.47;;;24.60;50.80;;;;;;7384502;19;20495;-47
2022/08/07 07:48:22;;;;;;;2.80;2.00;;;24.70;50.50;;;;;;7384843;19;20419;-47
2022/08/07 07:50:54;;;;;;;2.13;1.87;;;24.90;50.10;;;;;;7382846;19;20395;-47
2022/08/07 07:53:25;;;;;;;2.00;1.80;;;24.90;50.00;;;;;;7383488;19;20786;-47
2022/08/07 07:55:56;;;;;;;1.50;1.40;;;24.90;49.10;;;;;;7382641;19;20383;-47
2022/08/07 07:58:28;;;;;;;1.60;1.50;;;24.90;47.90;;;;;;7381054;19;20380;-48
2022/08/07 08:01:01;;;;;;;1.60;1.20;;;24.90;48.10;;;;;;7381941;19;20428;-47
2022/08/07 08:03:35;;;;;;;2.30;1.20;;;25.00;48.00;;;;;;7382643;19;20395;-47
2022/08/07 08:06:05;;;;;;;1.40;1.20;;;25.10;46.10;;;;;;7384565;19;20387;-47
2022/08/07 08:08:37;;;;;;;5.57;2.40;;;25.20;46.30;;;;;;7381247;19;20384;-47
2022/08/07 08:11:11;;;;;;;2.60;2.10;;;25.40;46.00;;;;;;7384550;19;20380;-47
2022/08/07 08:13:44;;;;;;;1.43;1.27;;;25.70;45.60;;;;;;7382413;19;20420;-47
2022/08/07 08:16:22;;;;;;;2.10;1.50;;;26.00;44.40;;;;;;7382733;19;20380;-47
2022/08/07 08:18:56;;;;;;;1.60;1.50;;;26.00;44.00;;;;;;7382751;19;21036;-47
2022/08/07 08:27:08;;;;;;;1.50;1.30;;;26.50;42.40;;;;;;7383398;19;20443;-47
2022/08/07 08:29:42;;;;;;;1.17;1.07;;;26.50;41.80;;;;;;7380174;19;20380;-47
2022/08/07 08:32:19;;;;;;;2.03;1.30;;;26.20;42.40;;;;;;7381622;19;20913;-47
2022/08/07 08:34:51;;;;;;;1.80;1.37;;;26.30;42.70;;;;;;7382977;19;20431;-48
2022/08/07 08:37:22;;;;;;;1.60;1.30;;;26.50;42.20;;;;;;7390168;19;20371;-48
2022/08/07 08:39:53;;;;;;;2.30;1.50;;;26.70;41.80;;;;;;7392457;19;20383;-48
2022/08/07 08:42:28;;;;;;;1.93;1.53;;;26.80;41.10;;;;;;7391331;19;20388;-48
2022/08/07 08:45:07;;;;;;;1.50;1.40;;;27.00;40.70;;;;;;7389027;19;20368;-48
2022/08/07 08:47:45;;;;;;;1.10;1.00;;;27.30;40.50;;;;;;7391203;19;20378;-48
2022/08/07 08:50:23;;;;;;;1.40;1.30;;;27.70;39.80;;;;;;7385934;19;20379;-48
2022/08/07 08:52:56;;;;;;;2.00;1.10;;;27.80;38.80;;;;;;7388389;19;20445;-48
2022/08/07 08:55:35;;;;;;;1.33;1.10;;;28.10;37.60;;;;;;7389461;19;20393;-48
2022/08/07 08:58:12;;;;;;;1.87;1.17;;;28.30;37.40;;;;;;7388585;19;20383;-48
2022/08/07 09:00:46;;;;;;;1.43;0.90;;;28.60;37.50;;;;;;7386618;19;20865;-48
2022/08/07 09:03:26;;;;;;;0.70;0.70;;;28.80;37.20;;;;;;7387145;19;20936;-48
2022/08/07 09:06:01;;;;;;;1.10;1.00;;;29.00;36.40;;;;;;7387070;19;20372;-48
2022/08/07 09:08:40;;;;;;;3.70;0.90;;;29.50;35.60;;;;;;7387768;19;20371;-48
2022/08/07 09:11:19;;;;;;;1.10;0.80;;;29.70;34.20;;;;;;7385302;19;20380;-48
2022/08/07 09:14:03;;;;;;;1.27;0.90;;;30.00;33.30;;;;;;7389183;19;20832;-48
2022/08/07 09:16:50;;;;;;;1.13;0.90;;;30.40;33.00;;;;;;7389239;19;20380;-48
2022/08/07 09:19:26;;;;;;;1.13;0.67;;;30.60;31.40;;;;;;7387679;19;20730;-48
2022/08/07 09:22:08;;;;;;;1.60;0.90;;;30.40;31.80;;;;;;7388003;19;20730;-48
2022/08/07 09:24:49;;;;;;;1.90;0.70;;;30.10;32.00;;;;;;7388808;19;20419;-48
2022/08/07 09:27:30;;;;;;;2.23;0.80;;;30.10;32.50;;;;;;7389345;19;20424;-48
2022/08/07 09:30:10;;;;;;;1.27;0.80;;;30.40;32.10;;;;;;7387972;19;20424;-48
2022/08/07 09:33:02;;;;;;;1.47;0.80;;;31.00;31.50;;;;;;7388062;19;20372;-46
2022/08/07 09:35:43;;;;;;;3.50;0.90;;;31.50;30.40;;;;;;7386167;19;20379;-46
2022/08/07 09:38:21;;;;;;;1.57;0.80;;;31.70;30.40;;;;;;7387258;19;20376;-48
2022/08/07 09:41:04;;;;;;;1.30;0.90;;;32.10;30.20;;;;;;7387576;19;20896;-46
2022/08/07 09:43:47;;;;;;;1.00;0.80;;;32.90;29.60;;;;;;7387601;19;20398;-49
2022/08/07 09:46:30;;;;;;;1.43;0.90;;;33.10;29.00;;;;;;7386606;19;20412;-47
2022/08/07 09:49:11;;;;;;;2.07;0.90;;;33.20;28.10;;;;;;7387274;19;20391;-50
2022/08/07 09:51:54;;;;;;;1.23;0.90;;;33.50;28.00;;;;;;7388871;19;20372;-47
2022/08/07 09:54:30;;;;;;;0.80;0.67;;;34.10;27.50;;;;;;7388027;19;20743;-46
2022/08/07 09:57:19;;;;;;;0.40;0.30;;;34.20;27.10;;;;;;7387058;19;20942;-47
2022/08/07 10:00:10;;;;;;;1.70;0.70;;;34.70;26.60;;;;;;7387950;19;20412;-47
2022/08/07 10:03:09;;;;;;;1.90;0.80;;;35.50;26.40;;;;;;7387185;19;20776;-47
2022/08/07 10:06:16;;;;;;;0.70;0.63;;;35.90;25.60;;;;;;7387293;19;20372;-47
2022/08/07 10:09:18;;;;;;;9.87;4.77;;;36.30;25.40;;;;;;7386850;19;20395;-47
2022/08/07 10:12:04;;;;;;;1.10;0.70;;;36.90;24.80;;;;;;7384931;19;20391;-47
2022/08/07 10:15:00;;;;;;;0.93;0.50;;;37.20;24.20;;;;;;7385422;19;20415;-47
2022/08/07 10:18:12;;;;;;;2.20;0.80;;;37.60;23.80;;;;;;7387116;19;20920;-48
2022/08/07 10:20:53;;;;;;;1.43;0.70;;;38.00;23.70;;;;;;7387141;19;20376;-47
2022/08/07 10:23:44;;;;;;;0.80;0.70;;;37.90;23.00;;;;;;7384723;19;20387;-47
2022/08/07 10:26:34;;;;;;;1.30;0.60;;;37.50;23.10;;;;;;7386866;19;20368;-48
2022/08/07 10:29:36;;;;;;;0.70;0.60;;;36.90;23.60;;;;;;7384400;19;20424;-47
2022/08/07 10:32:29;;;;;;;1.07;0.80;;;37.00;23.70;;;;;;7384806;19;20775;-48
2022/08/07 10:35:11;;;;;;;1.20;0.60;;;37.30;23.80;;;;;;7386230;19;20795;-47
2022/08/07 10:37:53;;;;;;;1.50;0.70;;;37.90;23.00;;;;;;7384209;19;20372;-49
2022/08/07 10:40:29;;;;;;;0.70;0.43;;;38.40;22.50;;;;;;7386633;19;20471;-48
2022/08/07 10:43:07;;;;;;;1.13;0.63;;;38.50;22.40;;;;;;7385254;19;20380;-48
2022/08/07 10:45:39;;;;;;;0.83;0.80;;;38.00;22.30;;;;;;7385834;19;20372;-47
2022/08/07 10:48:21;;;;;;;1.13;0.50;;;37.70;22.80;;;;;;7384200;19;20409;-47
2022/08/07 10:50:55;;;;;;;1.37;0.63;;;38.20;22.70;;;;;;7383940;19;20384;-48
2022/08/07 10:53:38;;;;;;;0.77;0.57;;;39.10;22.40;;;;;;7385468;19;20386;-48
2022/08/07 10:56:15;;;;;;;1.63;0.70;;;39.90;21.70;;;;;;7384202;19;20376;-48
2022/08/07 10:58:58;;;;;;;0.80;0.70;;;40.50;21.20;;;;;;7383755;19;20386;-48
2022/08/07 11:01:51;;;;;;;1.00;0.63;;;41.70;21.00;;;;;;7382707;19;20472;-48
2022/08/07 11:04:41;;;;;;;1.00;0.70;;;41.40;20.80;;;;;;7381376;19;20391;-48
2022/08/07 11:07:21;;;;;;;0.93;0.70;;;41.40;21.00;;;;;;7384263;19;20388;-48
2022/08/07 11:09:57;;;;;;;1.57;1.00;;;42.00;20.70;;;;;;7382404;19;20368;-48
2022/08/07 11:12:36;;;;;;;0.60;0.40;;;42.10;20.70;;;;;;7384440;19;20376;-48
2022/08/07 11:15:14;;;;;;;0.77;0.67;;;41.80;20.50;;;;;;7385046;19;20368;-48
2022/08/07 11:17:50;;;;;;;1.17;0.40;;;41.30;21.40;;;;;;7383576;19;20433;-48
2022/08/07 11:20:24;;;;;;;1.33;0.80;;;41.40;20.90;;;;;;7383699;19;20548;-48
2022/08/07 11:23:02;;;;;;;0.80;0.60;;;41.20;21.40;;;;;;7385109;19;20382;-48
2022/08/07 11:25:36;;;;;;;2.17;0.93;;;41.80;20.70;;;;;;7384130;19;20958;-48
2022/08/07 11:28:11;;;;;;;0.80;0.57;;;41.90;20.70;;;;;;7385925;19;20502;-48
2022/08/07 11:30:53;;;;;;;1.87;0.73;;;41.70;20.50;;;;;;7383756;19;20965;-48
2022/08/07 11:33:30;;;;;;;2.00;0.80;;;41.50;21.10;;;;;;7385864;19;20476;-48
2022/08/07 11:36:13;;;;;;;1.10;0.70;;;42.00;20.70;;;;;;7382669;19;20355;-49
2022/08/07 11:38:55;;;;;;;1.67;0.60;;;42.70;20.00;;;;;;7383128;19;20399;-49
2022/08/07 11:41:34;;;;;;;1.00;0.60;;;43.00;20.00;;;;;;7385507;19;20380;-49
2022/08/07 11:44:12;;;;;;;0.83;0.60;;;42.80;20.00;;;;;;7383042;19;20375;-49
2022/08/07 11:46:59;;;;;;;0.80;0.60;;;42.90;20.20;;;;;;7385070;19;21024;-49
2022/08/07 11:49:59;;;;;;;0.60;0.50;;;43.70;20.00;;;;;;7382648;19;20438;-48
2022/08/07 11:52:51;;;;;;;1.07;0.70;;;42.60;20.00;;;;;;7382971;19;20383;-49
2022/08/07 11:55:35;;;;;;;0.70;0.50;;;41.70;20.50;;;;;;7382024;19;20762;-49
2022/08/07 11:58:16;;;;;;;0.90;0.73;;;40.90;20.70;;;;;;7383472;19;20378;-49
2022/08/07 12:00:59;;;;;;;1.20;0.63;;;41.60;20.70;;;;;;7383772;19;20416;-49
2022/08/07 12:03:46;;;;;;;1.50;0.80;;;41.40;20.60;;;;;;7380847;19;20424;-49
2022/08/07 12:06:39;;;;;;;1.27;0.90;;;41.00;21.00;;;;;;7382124;19;20730;-49
2022/08/07 12:09:14;;;;;;;0.80;0.70;;;41.10;21.00;;;;;;7382928;19;20772;-49
2022/08/07 12:11:49;;;;;;;0.70;0.50;;;41.10;20.90;;;;;;7387986;19;20511;-49
2022/08/07 12:14:22;;;;;;;0.80;0.60;;;41.70;20.80;;;;;;7388994;19;20383;-49
2022/08/07 12:16:57;;;;;;;1.17;0.80;;;42.70;20.20;;;;;;7390679;19;20380;-49
2022/08/07 12:19:45;;;;;;;0.90;0.70;;;43.60;19.70;;;;;;7388997;19;20416;-49
2022/08/07 12:22:23;;;;;;;0.90;0.60;;;43.70;19.80;;;;;;7391434;19;20451;-49
2022/08/07 12:28:01;;;;;;;2.10;0.60;;;45.40;18.70;;;;;;7387337;19;20380;-49
2022/08/07 12:30:36;;;;;;;0.90;0.50;;;44.70;18.80;;;;;;7390993;19;20384;-49
2022/08/07 12:33:11;;;;;;;0.67;0.57;;;43.80;19.10;;;;;;7391367;19;20411;-49
2022/08/07 12:35:44;;;;;;;0.93;0.60;;;43.70;19.40;;;;;;7389559;19;20754;-49
2022/08/07 12:38:16;;;;;;;0.70;0.60;;;44.00;19.20;;;;;;7389492;19;20775;-49
2022/08/07 12:40:48;;;;;;;0.53;0.43;;;44.00;19.20;;;;;;7389490;19;20429;-49
2022/08/07 12:43:22;;;;;;;1.03;0.50;;;44.40;19.20;;;;;;7389182;19;20399;-49
2022/08/07 12:46:00;;;;;;;0.90;0.50;;;45.00;18.80;;;;;;7388167;19;20384;-49
2022/08/07 12:48:38;;;;;;;1.13;0.63;;;44.30;18.80;;;;;;7389620;19;20439;-49
2022/08/07 12:51:13;;;;;;;0.87;0.60;;;44.40;19.10;;;;;;7387735;19;20376;-49
2022/08/07 12:53:49;;;;;;;0.70;0.50;;;44.20;19.00;;;;;;7389729;19;20443;-49
2022/08/07 12:56:27;;;;;;;1.80;0.67;;;42.80;19.40;;;;;;7389230;19;20372;-48
2022/08/07 12:59:00;;;;;;;0.90;0.70;;;41.00;20.30;;;;;;7387796;19;20415;-49
2022/08/07 13:01:44;;;;;;;1.67;0.90;;;39.60;21.50;;;;;;7387654;19;20412;-49
2022/08/07 13:04:35;;;;;;;0.83;0.70;;;38.60;22.30;;;;;;7382764;19;20396;-48
2022/08/07 13:07:38;;;;;;;1.70;1.00;;;37.40;23.10;;;;;;7386588;19;20372;-49
2022/08/07 13:10:34;;;;;;;1.00;0.87;;;36.70;23.60;;;;;;7384205;19;20424;-49
2022/08/07 13:13:21;;;;;;;2.10;1.10;;;35.40;24.30;;;;;;7384991;19;20380;-48
2022/08/07 13:16:01;;;;;;;1.87;0.90;;;34.70;24.90;;;;;;7387626;19;20929;-49
2022/08/07 13:18:41;;;;;;;2.70;0.83;;;34.30;25.40;;;;;;7357123;19;20431;-48
2022/08/07 13:21:18;;;;;;;1.10;0.63;;;34.20;25.90;;;;;;7383840;19;20384;-48
2022/08/07 13:24:01;;;;;;;1.00;0.73;;;33.60;26.10;;;;;;7385508;19;20371;-52
2022/08/07 13:26:37;;;;;;;0.80;0.80;;;33.30;26.50;;;;;;7386573;19;20376;-48
2022/08/07 13:29:15;;;;;;;1.27;0.97;;;32.80;26.80;;;;;;7385840;19;20440;-48
2022/08/07 13:31:51;;;;;;;1.10;0.90;;;32.60;27.00;;;;;;7383670;19;20394;-48
2022/08/07 13:34:31;;;;;;;0.93;0.80;;;32.50;27.30;;;;;;7382856;19;20386;-48
2022/08/07 13:37:05;;;;;;;1.50;1.07;;;32.30;27.30;;;;;;7384383;19;21764;-48
2022/08/07 13:39:45;;;;;;;2.43;1.30;;;32.30;27.60;;;;;;7385829;19;20379;-49
2022/08/07 13:42:16;;;;;;;0.63;0.60;;;32.00;27.70;;;;;;7384456;19;20447;-48